Latest Weather Observations for Strathalbyn

IDS60901

Issued at 8:51 am CDT Monday 23 January 2017 (issued every 10 minutes, with the page automatically refreshed every 10 minutes)

About weather observations | Map of Adelaide area stations | Latest observations for Adelaide area | Other Formats
Station Details ID: 024580 Name: STRATHALBYN RACECOURSE Lat: -35.28 Lon: 138.89 Height: 58.0 m
Data from the previous 72 hours. | See also: Recent months at Strathalbyn
Date/Time
CDT
Temp
°C
App
Temp
°C
Dew
Point
°C
Rel
Hum
%
Delta-T
°C
Wind Press
QNH
hPa
Press
MSL
hPa
Rain since
9am
mm
Dir  Spd
km/h
Gust
km/h
Spd
kts
Gust
kts
23/08:30am 26.1 25.0 11.8 41 8.2 NE 9 11 5 6 1004.7 1004.5 0.0
23/08:00am 25.0 24.7 13.2 48 6.9 N 7 9 4 5 1004.6 1004.4 0.0
23/07:30am 22.3 22.1 13.6 58 5.1 N 7 11 4 6 1004.7 1004.5 0.0
23/07:00am 21.9 20.9 13.3 58 5.0 NNW 11 13 6 7 1004.7 1004.5 0.0
23/06:30am 21.2 21.4 14.8 67 3.8 N 7 9 4 5 1004.7 1004.5 0.0
23/06:00am 20.8 20.6 14.7 68 3.6 NNW 9 11 5 6 1004.8 1004.6 0.0
23/05:30am 20.2 20.3 15.4 74 2.9 NW 9 11 5 6 1004.9 1004.7 0.0
23/05:00am 20.4 20.4 15.2 72 3.1 NW 9 9 5 5 1004.9 1004.7 0.0
23/04:30am 21.0 21.7 15.5 71 3.3 WNW 6 9 3 5 1005.1 1004.9 0.0
23/04:00am 21.0 21.5 14.9 68 3.6 W 6 7 3 4 1005.4 1005.2 0.0
23/03:30am 21.2 21.9 15.7 71 3.3 WSW 6 7 3 4 1005.6 1005.4 0.0
23/03:00am 21.3 23.2 15.8 71 3.3 CALM 0 4 0 2 1006.1 1005.9 0.0
23/02:30am 21.6 23.8 16.6 73 3.1 CALM 0 0 0 0 1006.7 1006.5 0.0
23/02:00am 21.9 22.5 15.7 68 3.7 N 7 9 4 5 1007.2 1007.0 0.0
23/01:30am 21.6 21.7 14.5 64 4.2 WNW 7 9 4 5 1007.7 1007.5 0.0
23/01:00am 21.8 22.1 14.9 65 4.1 WSW 7 9 4 5 1008.2 1008.0 0.0
23/12:30am 22.0 20.7 14.9 64 4.2 SW 15 20 8 11 1008.4 1008.2 0.0
23/12:00am 22.7 20.6 13.7 56 5.3 SSW 17 24 9 13 1008.5 1008.3 0.0
 
Date/Time
CDT
Temp
°C
App
Temp
°C
Dew
Point
°C
Rel
Hum
%
Delta-T
°C
Wind Press
QNH
hPa
Press
MSL
hPa
Rain since
9am
mm
Dir  Spd
km/h
Gust
km/h
Spd
kts
Gust
kts
22/11:30pm 23.0 22.8 13.5 55 5.5 W 7 9 4 5 1008.4 1008.2 0.0
22/11:00pm 22.8 22.6 13.6 56 5.4 WSW 7 9 4 5 1008.1 1007.9 0.0
22/10:30pm 22.8 23.5 14.4 59 5.0 W 4 7 2 4 1008.0 1007.8 0.0
22/10:00pm 22.8 22.7 13.8 57 5.3 WNW 7 9 4 5 1008.1 1007.9 0.0
22/09:30pm 23.9 24.9 13.2 51 6.2 CALM 0 0 0 0 1008.3 1008.1 0.0
22/09:00pm 24.2 23.3 12.5 48 6.7 S 9 11 5 6 1008.6 1008.4 0.0
22/08:30pm 25.2 22.8 11.4 42 7.8 SSW 15 17 8 9 1008.8 1008.6 0.0
22/08:00pm 26.0 22.7 11.0 39 8.5 SSW 19 24 10 13 1008.8 1008.6 0.0
22/07:30pm 27.4 24.7 10.2 34 9.7 SSW 15 19 8 10 1008.5 1008.3 0.0
22/07:00pm 28.9 25.5 9.1 29 11.0 SSW 17 22 9 12 1008.2 1008.0 0.0
22/06:30pm 29.8 26.0 9.9 29 11.3 SSW 20 24 11 13 1007.7 1007.5 0.0
22/06:00pm 29.6 25.9 10.2 30 11.0 SW 20 26 11 14 1007.9 1007.7 0.0
22/05:30pm 30.4 26.8 10.4 29 11.4 SW 20 30 11 16 1007.9 1007.7 0.0
22/05:00pm 32.3 28.2 7.9 22 13.5 SW 19 28 10 15 1007.9 1007.7 0.0
22/04:30pm 33.8 31.2 6.2 18 15.0 W 9 19 5 10 1007.9 1007.7 0.0
22/04:00pm 33.5 30.3 3.3 15 15.6 NW 9 15 5 8 1008.2 1008.0 0.0
22/03:30pm 33.4 31.4 4.2 16 15.3 WSW 4 7 2 4 1008.6 1008.4 0.0
22/03:00pm 33.2 31.4 7.9 21 14.1 W 7 13 4 7 1008.7 1008.5 0.0
22/02:30pm 32.5 30.1 5.1 18 14.5 ENE 7 11 4 6 1009.0 1008.8 0.0
22/02:00pm 32.2 29.1 5.7 19 14.2 NNW 11 17 6 9 1009.5 1009.3 0.0
22/01:30pm 32.2 29.3 6.4 20 14.0 NE 11 22 6 12 1010.0 1009.8 0.0
22/01:00pm 30.9 27.6 4.6 19 13.7 NW 11 17 6 9 1010.6 1010.4 0.0
22/12:30pm 30.7 27.1 6.6 22 13.0 N 15 20 8 11 1011.0 1010.8 0.0
22/12:00pm 30.1 25.7 4.7 20 13.2 N 17 24 9 13 1011.4 1011.2 0.0
22/11:30am 29.5 25.6 8.5 27 11.6 NE 19 24 10 13 1011.8 1011.6 0.0
22/11:00am 28.9 25.0 9.6 30 10.8 NE 20 28 11 15 1011.9 1011.7 0.0
22/10:30am 27.2 24.1 10.4 35 9.5 NE 17 22 9 12 1012.4 1012.2 0.0
22/10:00am 26.1 23.6 12.2 42 8.0 NE 17 20 9 11 1012.5 1012.3 0.0
22/09:30am 23.9 21.9 12.8 49 6.4 ENE 15 19 8 10 1013.1 1012.9 0.0
22/09:00am 21.8 21.3 13.9 61 4.6 E 9 17 5 9 1013.2 1013.0 0.0
22/08:30am 20.2 20.5 15.0 72 3.1 ENE 7 11 4 6 1013.2 1013.0 0.0
22/08:00am 18.4 18.5 13.9 75 2.6 ENE 6 7 3 4 1013.0 1012.8 0.0
22/07:30am 16.3 15.5 13.0 81 1.8 N 9 11 5 6 1012.9 1012.7 0.0
22/07:00am 14.3 13.8 12.2 87 1.1 NNE 6 9 3 5 1012.7 1012.5 0.0
22/06:30am 13.2 12.0 11.6 90 0.9 NNW 9 13 5 7 1012.7 1012.5 0.0
22/06:00am 13.3 11.4 11.7 90 0.9 NNW 13 13 7 7 1012.6 1012.4 0.0
22/05:30am 13.4 11.9 12.0 91 0.8 N 11 13 6 7 1012.7 1012.5 0.0
22/05:00am 13.4 12.0 12.1 92 0.7 NNW 11 15 6 8 1012.6 1012.4 0.0
22/04:30am 13.5 11.7 12.2 92 0.7 NNW 13 15 7 8 1012.6 1012.4 0.0
22/04:00am 13.6 11.9 12.3 92 0.7 NNW 13 15 7 8 1012.8 1012.6 0.0
22/03:30am 13.7 12.4 12.4 92 0.7 NNW 11 11 6 6 1013.0 1012.8 0.0
22/03:00am 14.0 12.8 12.7 92 0.7 NNW 11 13 6 7 1013.4 1013.2 0.0
22/02:30am 14.1 13.2 12.7 91 0.8 NW 9 11 5 6 1013.6 1013.4 0.0
22/02:00am 14.2 13.2 12.4 89 1.0 NW 9 11 5 6 1014.1 1013.9 0.0
22/01:30am 14.3 13.7 12.3 88 1.1 WNW 7 9 4 5 1014.2 1014.0 0.0
22/01:00am 15.1 14.7 13.0 87 1.2 W 7 9 4 5 1014.4 1014.2 0.0
22/12:30am 15.2 14.4 12.9 86 1.3 WSW 9 11 5 6 1014.7 1014.5 0.0
22/12:00am 15.2 14.3 12.7 85 1.4 W 9 11 5 6 1015.0 1014.8 0.0
 
Date/Time
CDT
Temp
°C
App
Temp
°C
Dew
Point
°C
Rel
Hum
%
Delta-T
°C
Wind Press
QNH
hPa
Press
MSL
hPa
Rain since
9am
mm
Dir  Spd
km/h
Gust
km/h
Spd
kts
Gust
kts
21/11:30pm 15.6 14.9 13.1 85 1.4 WSW 9 11 5 6 1015.1 1014.9 0.0
21/11:00pm 15.4 14.6 12.9 85 1.4 WSW 9 11 5 6 1015.3 1015.1 0.0
21/10:30pm 15.8 15.1 13.1 84 1.5 WSW 9 11 5 6 1015.5 1015.3 0.0
21/10:00pm 16.2 15.4 12.9 81 1.8 SW 9 11 5 6 1015.7 1015.5 0.0
21/09:30pm 16.7 15.6 13.2 80 2.0 SW 11 13 6 7 1015.5 1015.3 0.0
21/09:00pm 17.2 15.3 13.1 77 2.3 SSW 15 17 8 9 1015.3 1015.1 0.0
21/08:30pm 18.1 15.8 13.0 72 2.9 S 17 20 9 11 1015.0 1014.8 0.0
21/08:00pm 19.3 16.4 13.0 67 3.6 S 20 24 11 13 1014.7 1014.5 0.0
21/07:30pm 20.4 17.5 12.9 62 4.3 S 20 28 11 15 1014.2 1014.0 0.0
21/07:00pm 21.3 18.3 12.4 57 5.0 S 20 26 11 14 1013.7 1013.5 0.0
21/06:30pm 21.6 17.7 12.2 55 5.3 S 24 32 13 17 1013.4 1013.2 0.0
21/06:00pm 22.5 19.0 12.2 52 5.8 S 22 28 12 15 1013.3 1013.1 0.0
21/05:30pm 22.8 19.0 11.2 48 6.5 SSE 22 32 12 17 1013.2 1013.0 0.0
21/05:00pm 24.3 21.0 11.6 45 7.2 SE 20 26 11 14 1013.1 1012.9 0.0
21/04:30pm 25.6 22.9 9.0 35 9.0 SE 13 20 7 11 1013.1 1012.9 0.0
21/04:00pm 25.7 23.3 8.7 34 9.2 SE 11 17 6 9 1013.4 1013.2 0.0
21/03:30pm 25.0 21.6 9.3 37 8.6 SE 17 22 9 12 1013.6 1013.4 0.0
21/03:00pm 24.3 20.7 9.8 40 8.0 SE 19 28 10 15 1013.8 1013.6 0.0
21/02:30pm 24.5 21.3 10.0 40 8.0 SE 17 28 9 15 1014.1 1013.9 0.0
21/02:00pm 23.9 20.9 6.2 32 9.1 E 11 19 6 10 1014.3 1014.1 0.0
21/01:30pm 23.7 21.0 7.3 35 8.6 ESE 11 17 6 9 1014.5 1014.3 0.0
21/01:00pm 23.2 20.3 8.1 38 8.0 E 13 20 7 11 1014.6 1014.4 0.0
21/12:30pm 22.0 19.5 8.2 41 7.3 NNE 11 17 6 9 1014.8 1014.6 0.0
21/12:00pm 21.0 18.6 8.6 45 6.5 ENE 11 20 6 11 1015.0 1014.8 0.0
21/11:30am 20.4 17.6 8.4 46 6.3 NE 13 22 7 12 1015.3 1015.1 0.0
21/11:00am 20.0 17.3 9.0 49 5.8 NE 13 20 7 11 1015.5 1015.3 0.0
21/10:30am 18.8 16.1 9.0 53 5.1 NE 13 20 7 11 1016.0 1015.8 0.0
21/10:00am 18.3 15.1 8.3 52 5.2 ENE 15 24 8 13 1016.1 1015.9 0.0
21/09:30am 17.5 14.5 9.4 59 4.2 NE 15 20 8 11 1016.3 1016.1 0.0
21/09:00am 16.9 13.7 10.1 64 3.6 ENE 17 22 9 12 1016.2 1016.0 0.2
21/08:30am 15.8 12.7 10.3 70 2.9 NE 17 24 9 13 1016.0 1015.8 0.2
21/08:00am 14.8 12.0 10.0 73 2.5 NNE 15 20 8 11 1015.7 1015.5 0.2
21/07:30am 14.1 11.7 10.1 77 2.1 NE 13 17 7 9 1015.2 1015.0 0.2
21/07:00am 12.8 11.2 10.2 84 1.3 NNE 9 11 5 6 1014.9 1014.7 0.2
21/06:30am 12.2 10.6 10.1 87 1.1 NNE 9 11 5 6 1014.8 1014.6 0.2
21/06:00am 12.5 11.3 10.4 87 1.1 NNE 7 9 4 5 1014.6 1014.4 0.2
21/05:30am 12.7 11.5 10.4 86 1.2 N 7 7 4 4 1014.3 1014.1 0.2
21/05:00am 13.0 13.3 10.9 87 1.1 CALM 0 0 0 0 1014.1 1013.9 0.2
21/04:30am 13.4 13.8 11.3 87 1.1 CALM 0 0 0 0 1013.8 1013.6 0.2
21/04:00am 12.7 12.8 10.2 85 1.3 CALM 0 0 0 0 1013.7 1013.5 0.2
21/03:30am 12.8 11.6 10.2 84 1.3 S 7 9 4 5 1013.5 1013.3 0.2
21/03:00am 12.8 10.8 10.2 84 1.3 S 11 13 6 7 1013.3 1013.1 0.2
21/02:30am 13.0 11.4 10.2 83 1.4 S 9 11 5 6 1013.4 1013.2 0.2
21/02:00am 13.5 11.9 10.3 81 1.7 S 9 11 5 6 1013.4 1013.2 0.2
21/01:30am 14.3 13.4 10.7 79 1.9 SSW 6 7 3 4 1013.5 1013.3 0.2
21/01:00am 14.7 13.3 10.9 78 2.0 SSE 9 11 5 6 1013.4 1013.2 0.2
21/12:30am 14.9 13.5 10.9 77 2.1 S 9 13 5 7 1013.4 1013.2 0.2
21/12:00am 14.4 13.6 11.2 81 1.7 S 6 7 3 4 1013.2 1013.0 0.2
 
Date/Time
CDT
Temp
°C
App
Temp
°C
Dew
Point
°C
Rel
Hum
%
Delta-T
°C
Wind Press
QNH
hPa
Press
MSL
hPa
Rain since
9am
mm
Dir  Spd
km/h
Gust
km/h
Spd
kts
Gust
kts
20/11:30pm 14.2 13.0 10.4 78 2.0 S 7 11 4 6 1012.9 1012.7 0.2
20/11:00pm 14.4 13.0 11.0 80 1.8 SSW 9 11 5 6 1012.6 1012.4 0.2
20/10:30pm 14.1 12.7 10.9 81 1.7 S 9 11 5 6 1012.4 1012.2 0.2
20/10:00pm 13.8 11.6 10.8 82 1.6 S 13 15 7 8 1012.1 1011.9 0.2
20/09:30pm 14.2 11.9 10.6 79 1.9 S 13 15 7 8 1011.7 1011.5 0.2
20/09:00pm 14.9 12.3 10.7 76 2.2 S 15 20 8 11 1011.4 1011.2 0.2
20/08:30pm 15.7 12.3 10.7 72 2.7 S 19 22 10 12 1011.1 1010.9 0.2
20/08:00pm 17.0 13.6 11.3 69 3.1 S 20 26 11 14 1010.5 1010.3 0.2
20/07:30pm 17.5 12.5 10.9 65 3.6 SSW 28 35 15 19 1010.2 1010.0 0.2
20/07:00pm 18.1 13.4 10.5 61 4.1 SSW 26 33 14 18 1010.1 1009.9 0.2
20/06:30pm 18.5 13.8 10.6 60 4.3 SSW 26 35 14 19 1009.9 1009.7 0.2
20/06:00pm 19.1 13.6 10.6 58 4.6 S 30 39 16 21 1009.6 1009.4 0.2
20/05:30pm 19.0 13.6 10.8 59 4.5 SSW 30 37 16 20 1009.7 1009.5 0.2
20/05:00pm 18.9 13.8 10.7 59 4.4 S 28 37 15 20 1009.7 1009.5 0.2
20/04:30pm 19.1 14.1 10.9 59 4.5 S 28 35 15 19 1009.4 1009.2 0.2
20/04:00pm 19.7 14.9 11.7 60 4.4 S 28 37 15 20 1009.1 1008.9 0.2
20/03:30pm 19.4 15.2 11.2 59 4.5 S 24 33 13 18 1008.9 1008.7 0.2
20/03:00pm 19.0 14.7 12.0 64 3.9 SSW 26 32 14 17 1008.8 1008.6 0.2
20/02:30pm 19.0 14.2 11.8 63 4.0 S 28 37 15 20 1008.6 1008.4 0.2
20/02:00pm 19.4 15.0 11.7 61 4.3 S 26 32 14 17 1008.5 1008.3 0.2
20/01:30pm 20.1 16.0 12.8 63 4.1 S 26 37 14 20 1008.3 1008.1 0.2
20/01:00pm 18.8 14.5 11.9 64 3.8 S 26 35 14 19 1008.2 1008.0 0.2
20/12:30pm 18.5 13.3 11.6 64 3.8 SSW 30 37 16 20 1008.0 1007.8 0.2
20/12:00pm 19.4 14.5 13.8 70 3.2 SSW 32 43 17 23 1007.8 1007.6 0.2
20/11:30am 18.1 12.8 12.5 70 3.1 S 32 41 17 22 1007.6 1007.4 0.2
20/11:00am 17.4 11.5 12.5 73 2.7 SSW 35 44 19 24 1007.2 1007.0 0.2
20/10:30am 17.4 11.3 11.9 70 3.0 SSW 35 46 19 25 1006.3 1006.1 0.0
20/10:00am 17.0 10.4 12.5 75 2.5 SSW 39 54 21 29 1005.9 1005.7 0.0
20/09:52am 17.4 11.6 12.7 74 2.6 SSW 35 54 19 29 1005.7 1005.5 0.0
20/09:30am 17.0 11.9 13.7 81 1.9 SSW 33 46 18 25 1005.3 1005.1 0.0
20/09:00am 17.0 12.3 13.1 78 2.2 SSW 30 39 16 21 1004.6 1004.4 25.6

Latest Capital City Observations: Canberra | Sydney | Melbourne | Brisbane | Adelaide | Perth | Hobart | Darwin

Other Formats:

Comma delimited format used in spreadsheet applications
http://www.bom.gov.au/fwo/IDS60901/IDS60901.94814.axf

JavaScript Object Notation format (JSON) in row-major order
http://www.bom.gov.au/fwo/IDS60901/IDS60901.94814.json